sensor_id;sensor_type;location;lat;lon;timestamp;pressure;altitude;pressure_sealevel;temperature;humidity
67009;BME280;53922;52.080;4.748;2022-08-05T00:01:15;59880.84;;;18.95;79.73
67009;BME280;53922;52.080;4.748;2022-08-05T00:03:40;59881.31;;;18.93;79.80
67009;BME280;53922;52.080;4.748;2022-08-05T00:06:06;59885.03;;;18.94;79.89
67009;BME280;53922;52.080;4.748;2022-08-05T00:08:32;59879.16;;;18.91;79.75
67009;BME280;53922;52.080;4.748;2022-08-05T00:10:59;59882.41;;;18.94;79.78
67009;BME280;53922;52.080;4.748;2022-08-05T00:13:24;59878.66;;;18.93;79.98
67009;BME280;53922;52.080;4.748;2022-08-05T00:15:50;59882.97;;;18.95;79.98
67009;BME280;53922;52.080;4.748;2022-08-05T00:18:15;59885.72;;;19.00;79.67
67009;BME280;53922;52.080;4.748;2022-08-05T00:20:40;59879.75;;;18.94;78.82
67009;BME280;53922;52.080;4.748;2022-08-05T00:23:06;59880.78;;;18.93;78.46
67009;BME280;53922;52.080;4.748;2022-08-05T00:25:31;59881.88;;;18.94;78.47
67009;BME280;53922;52.080;4.748;2022-08-05T00:27:57;59885.09;;;18.97;78.76
67009;BME280;53922;52.080;4.748;2022-08-05T00:30:22;59880.84;;;18.95;79.03
67009;BME280;53922;52.080;4.748;2022-08-05T00:32:47;59882.97;;;18.95;78.36
67009;BME280;53922;52.080;4.748;2022-08-05T00:35:14;59874.31;;;18.89;78.77
67009;BME280;53922;52.080;4.748;2022-08-05T00:37:39;59868.31;;;18.81;78.77
67009;BME280;53922;52.080;4.748;2022-08-05T00:40:05;59870.94;;;18.81;79.06
67009;BME280;53922;52.080;4.748;2022-08-05T00:42:32;59870.94;;;18.81;78.93
67009;BME280;53922;52.080;4.748;2022-08-05T00:44:59;59863.50;;;18.79;78.80
67009;BME280;53922;52.080;4.748;2022-08-05T00:47:24;59865.06;;;18.78;78.96
67009;BME280;53922;52.080;4.748;2022-08-05T00:49:50;59863.38;;;18.74;78.72
67009;BME280;53922;52.080;4.748;2022-08-05T00:52:15;59853.75;;;18.70;79.14
67009;BME280;53922;52.080;4.748;2022-08-05T00:54:40;59850.94;;;18.62;78.88
67009;BME280;53922;52.080;4.748;2022-08-05T00:57:06;59854.72;;;18.65;79.21
67009;BME280;53922;52.080;4.748;2022-08-05T01:01:56;59848.84;;;18.62;78.92
67009;BME280;53922;52.080;4.748;2022-08-05T01:04:22;59840.25;;;18.57;78.14
67009;BME280;53922;52.080;4.748;2022-08-05T01:06:47;59842.94;;;18.59;78.58
67009;BME280;53922;52.080;4.748;2022-08-05T01:09:13;59845.53;;;18.57;78.23
67009;BME280;53922;52.080;4.748;2022-08-05T01:11:39;59828.28;;;18.43;78.78
67009;BME280;53922;52.080;4.748;2022-08-05T01:14:11;59830.97;;;18.45;79.66
67009;BME280;53922;52.080;4.748;2022-08-05T01:16:52;59842.34;;;18.56;80.21
67009;BME280;53922;52.080;4.748;2022-08-05T01:25:01;59829.97;;;18.47;79.78
67009;BME280;53922;52.080;4.748;2022-08-05T01:27:53;59844.44;;;18.56;80.41
67009;BME280;53922;52.080;4.748;2022-08-05T01:30:21;59846.13;;;18.60;80.47
67009;BME280;53922;52.080;4.748;2022-08-05T01:32:50;59836.38;;;18.50;80.49
67009;BME280;53922;52.080;4.748;2022-08-05T01:35:17;59831.94;;;18.41;81.28
67009;BME280;53922;52.080;4.748;2022-08-05T01:37:49;59823.97;;;18.39;81.79
67009;BME280;53922;52.080;4.748;2022-08-05T01:42:43;59831.03;;;18.48;81.91
67009;BME280;53922;52.080;4.748;2022-08-05T01:45:12;59825.56;;;18.40;81.93
67009;BME280;53922;52.080;4.748;2022-08-05T01:47:39;59824.91;;;18.34;81.94
67009;BME280;53922;52.080;4.748;2022-08-05T01:50:13;59819.63;;;18.34;82.23
67009;BME280;53922;52.080;4.748;2022-08-05T01:52:39;59820.16;;;18.35;82.31
67009;BME280;53922;52.080;4.748;2022-08-05T01:55:08;59822.81;;;18.35;81.42
67009;BME280;53922;52.080;4.748;2022-08-05T01:57:40;59815.78;;;18.28;81.13
67009;BME280;53922;52.080;4.748;2022-08-05T02:00:08;59810.41;;;18.26;81.21
67009;BME280;53922;52.080;4.748;2022-08-05T02:02:40;59812.06;;;18.27;81.62
67009;BME280;53922;52.080;4.748;2022-08-05T02:05:10;59812.00;;;18.25;81.79
67009;BME280;53922;52.080;4.748;2022-08-05T02:07:36;59810.34;;;18.23;80.79
67009;BME280;53922;52.080;4.748;2022-08-05T02:10:03;59809.28;;;18.22;81.13
67009;BME280;53922;52.080;4.748;2022-08-05T02:12:39;59802.88;;;18.19;81.75
67009;BME280;53922;52.080;4.748;2022-08-05T02:15:19;59801.31;;;18.20;81.05
67009;BME280;53922;52.080;4.748;2022-08-05T02:17:52;59804.94;;;18.18;81.34
67009;BME280;53922;52.080;4.748;2022-08-05T02:20:25;59800.69;;;18.16;81.52
67009;BME280;53922;52.080;4.748;2022-08-05T02:23:01;59804.34;;;18.15;82.06
67009;BME280;53922;52.080;4.748;2022-08-05T02:25:38;59790.47;;;18.09;82.10
67009;BME280;53922;52.080;4.748;2022-08-05T02:28:06;59795.22;;;18.09;83.01
67009;BME280;53922;52.080;4.748;2022-08-05T02:30:43;59795.28;;;18.11;83.62
67009;BME280;53922;52.080;4.748;2022-08-05T02:33:10;59791.50;;;18.08;83.20
67009;BME280;53922;52.080;4.748;2022-08-05T02:35:37;59778.00;;;17.95;83.58
67009;BME280;53922;52.080;4.748;2022-08-05T02:38:05;59775.78;;;17.93;84.21
67009;BME280;53922;52.080;4.748;2022-08-05T02:40:32;59768.78;;;17.86;83.93
67009;BME280;53922;52.080;4.748;2022-08-05T02:42:58;59773.09;;;17.90;84.03
67009;BME280;53922;52.080;4.748;2022-08-05T02:45:26;59768.28;;;17.88;83.34
67009;BME280;53922;52.080;4.748;2022-08-05T02:47:53;59765.53;;;17.83;83.70
67009;BME280;53922;52.080;4.748;2022-08-05T02:50:21;59765.00;;;17.82;83.37
67009;BME280;53922;52.080;4.748;2022-08-05T02:52:47;59763.84;;;17.79;83.04
67009;BME280;53922;52.080;4.748;2022-08-05T02:55:13;59754.19;;;17.72;83.73
67009;BME280;53922;52.080;4.748;2022-08-05T02:57:39;59759.59;;;17.77;83.96
67009;BME280;53922;52.080;4.748;2022-08-05T03:00:06;59758.50;;;17.76;83.80
67009;BME280;53922;52.080;4.748;2022-08-05T03:02:35;59759.53;;;17.75;84.06
67009;BME280;53922;52.080;4.748;2022-08-05T03:05:04;59754.66;;;17.70;84.38
67009;BME280;53922;52.080;4.748;2022-08-05T03:07:32;59754.19;;;17.72;84.85
67009;BME280;53922;52.080;4.748;2022-08-05T03:09:58;59743.44;;;17.64;84.95
67009;BME280;53922;52.080;4.748;2022-08-05T03:12:33;59741.69;;;17.58;85.33
67009;BME280;53922;52.080;4.748;2022-08-05T03:14:59;59731.53;;;17.53;85.49
67009;BME280;53922;52.080;4.748;2022-08-05T03:19:51;59738.97;;;17.55;86.06
67009;BME280;53922;52.080;4.748;2022-08-05T03:22:16;59726.69;;;17.48;85.11
67009;BME280;53922;52.080;4.748;2022-08-05T03:24:43;59731.00;;;17.52;84.54
67009;BME280;53922;52.080;4.748;2022-08-05T03:27:09;59733.63;;;17.52;84.37
67009;BME280;53922;52.080;4.748;2022-08-05T03:29:35;59738.97;;;17.55;84.01
67009;BME280;53922;52.080;4.748;2022-08-05T03:34:27;59741.69;;;17.58;83.51
67009;BME280;53922;52.080;4.748;2022-08-05T03:36:53;59741.16;;;17.57;83.61
67009;BME280;53922;52.080;4.748;2022-08-05T03:39:18;59732.06;;;17.53;83.40
67009;BME280;53922;52.080;4.748;2022-08-05T03:41:44;59730.47;;;17.52;83.20
67009;BME280;53922;52.080;4.748;2022-08-05T03:44:09;59724.44;;;17.44;82.88
67009;BME280;53922;52.080;4.748;2022-08-05T03:46:34;59719.03;;;17.39;83.27
67009;BME280;53922;52.080;4.748;2022-08-05T03:49:00;59714.72;;;17.34;83.25
67009;BME280;53922;52.080;4.748;2022-08-05T03:52:23;59711.97;;;17.29;83.64
67009;BME280;53922;52.080;4.748;2022-08-05T03:54:29;59703.44;;;17.26;83.91
67009;BME280;53922;52.080;4.748;2022-08-05T03:56:56;59700.19;;;17.23;84.07
67009;BME280;53922;52.080;4.748;2022-08-05T03:59:30;59708.19;;;17.26;84.54
67009;BME280;53922;52.080;4.748;2022-08-05T04:01:59;59704.94;;;17.23;84.46
67009;BME280;53922;52.080;4.748;2022-08-05T04:04:25;59704.00;;;17.27;84.09
67009;BME280;53922;52.080;4.748;2022-08-05T04:06:52;59702.34;;;17.25;83.68
67009;BME280;53922;52.080;4.748;2022-08-05T04:09:17;59705.00;;;17.25;84.21
67009;BME280;53922;52.080;4.748;2022-08-05T04:11:44;59700.13;;;17.20;84.13
67009;BME280;53922;52.080;4.748;2022-08-05T04:14:09;59702.34;;;17.25;84.01
67009;BME280;53922;52.080;4.748;2022-08-05T04:16:36;59698.56;;;17.22;83.40
67009;BME280;53922;52.080;4.748;2022-08-05T04:19:02;59697.44;;;17.18;83.94
67009;BME280;53922;52.080;4.748;2022-08-05T04:21:28;59693.59;;;17.12;83.67
67009;BME280;53922;52.080;4.748;2022-08-05T04:23:53;59688.72;;;17.07;83.74
67009;BME280;53922;52.080;4.748;2022-08-05T04:26:19;59681.78;;;17.03;84.45
67009;BME280;53922;52.080;4.748;2022-08-05T04:28:44;59676.38;;;16.98;84.31
67009;BME280;53922;52.080;4.748;2022-08-05T04:33:35;59666.63;;;16.88;84.04
67009;BME280;53922;52.080;4.748;2022-08-05T04:36:00;59670.41;;;16.92;85.21
67009;BME280;53922;52.080;4.748;2022-08-05T04:38:25;59666.09;;;16.88;84.12
67009;BME280;53922;52.080;4.748;2022-08-05T04:40:51;59658.00;;;16.80;84.28
67009;BME280;53922;52.080;4.748;2022-08-05T04:50:46;59653.72;;;16.79;84.23
67009;BME280;53922;52.080;4.748;2022-08-05T04:53:13;59653.13;;;16.76;84.86
67009;BME280;53922;52.080;4.748;2022-08-05T04:55:40;59649.28;;;16.69;84.12
67009;BME280;53922;52.080;4.748;2022-08-05T04:58:09;59636.94;;;16.60;84.52
67009;BME280;53922;52.080;4.748;2022-08-05T05:00:36;59633.22;;;16.59;85.18
67009;BME280;53922;52.080;4.748;2022-08-05T05:05:29;59633.63;;;16.54;85.10
67009;BME280;53922;52.080;4.748;2022-08-05T05:07:59;59640.63;;;16.61;85.35
67009;BME280;53922;52.080;4.748;2022-08-05T05:10:24;59643.38;;;16.66;84.96
67009;BME280;53922;52.080;4.748;2022-08-05T05:12:50;59652.56;;;16.75;84.25
67009;BME280;53922;52.080;4.748;2022-08-05T05:15:15;59668.09;;;16.85;84.34
67009;BME280;53922;52.080;4.748;2022-08-05T05:17:42;59680.63;;;16.99;83.06
67009;BME280;53922;52.080;4.748;2022-08-05T05:20:12;59730.34;;;17.47;81.86
67009;BME280;53922;52.080;4.748;2022-08-05T05:22:37;59776.34;;;17.93;79.13
67009;BME280;53922;52.080;4.748;2022-08-05T05:25:03;59807.19;;;18.23;77.56
67009;BME280;53922;52.080;4.748;2022-08-05T05:27:30;59808.31;;;18.26;76.60
67009;BME280;53922;52.080;4.748;2022-08-05T05:29:56;59834.78;;;18.49;75.83
67009;BME280;53922;52.080;4.748;2022-08-05T05:32:22;59851.59;;;18.68;75.09
67009;BME280;53922;52.080;4.748;2022-08-05T05:34:47;59855.94;;;18.72;74.95
67009;BME280;53922;52.080;4.748;2022-08-05T05:37:13;59840.72;;;18.55;75.56
67009;BME280;53922;52.080;4.748;2022-08-05T05:39:39;59826.66;;;18.41;76.68
67009;BME280;53922;52.080;4.748;2022-08-05T05:42:04;59812.59;;;18.28;76.83
67009;BME280;53922;52.080;4.748;2022-08-05T05:44:30;59826.09;;;18.41;77.59
67009;BME280;53922;52.080;4.748;2022-08-05T05:46:55;59842.81;;;18.54;76.26
67009;BME280;53922;52.080;4.748;2022-08-05T05:49:20;59864.03;;;18.79;75.84
67009;BME280;53922;52.080;4.748;2022-08-05T05:51:46;59873.06;;;18.80;74.82
67009;BME280;53922;52.080;4.748;2022-08-05T05:54:11;59869.88;;;18.80;75.59
67009;BME280;53922;52.080;4.748;2022-08-05T05:56:36;59885.03;;;18.94;75.78
67009;BME280;53922;52.080;4.748;2022-08-05T05:59:05;59907.19;;;19.13;74.56
67009;BME280;53922;52.080;4.748;2022-08-05T06:01:32;59911.09;;;19.22;74.24
67009;BME280;53922;52.080;4.748;2022-08-05T06:06:23;59918.06;;;19.26;73.05
67009;BME280;53922;52.080;4.748;2022-08-05T06:08:49;59914.28;;;19.22;74.50
67009;BME280;53922;52.080;4.748;2022-08-05T06:11:14;59919.63;;;19.25;74.08
67009;BME280;53922;52.080;4.748;2022-08-05T06:13:39;59919.22;;;19.29;73.15
67009;BME280;53922;52.080;4.748;2022-08-05T06:16:05;59923.00;;;19.33;73.75
67009;BME280;53922;52.080;4.748;2022-08-05T06:18:30;59924.69;;;19.37;73.63
67009;BME280;53922;52.080;4.748;2022-08-05T06:20:56;59919.28;;;19.32;72.75
67009;BME280;53922;52.080;4.748;2022-08-05T06:23:21;59917.03;;;19.27;72.51
67009;BME280;53922;52.080;4.748;2022-08-05T06:25:46;59908.97;;;19.22;71.66
67009;BME280;53922;52.080;4.748;2022-08-05T06:28:13;59913.22;;;19.21;72.08
67009;BME280;53922;52.080;4.748;2022-08-05T06:30:38;59943.03;;;19.52;72.29
67009;BME280;53922;52.080;4.748;2022-08-05T06:33:04;59989.16;;;19.99;70.08
67009;BME280;53922;52.080;4.748;2022-08-05T06:35:29;59997.78;;;20.04;68.18
67009;BME280;53922;52.080;4.748;2022-08-05T06:37:54;59994.50;;;20.01;66.50
67009;BME280;53922;52.080;4.748;2022-08-05T06:40:20;59996.16;;;20.03;67.17
67009;BME280;53922;52.080;4.748;2022-08-05T06:42:45;59982.66;;;19.92;67.84
67009;BME280;53922;52.080;4.748;2022-08-05T06:45:10;59962.59;;;19.73;68.05
67009;BME280;53922;52.080;4.748;2022-08-05T06:47:36;59956.59;;;19.65;67.92
67009;BME280;53922;52.080;4.748;2022-08-05T06:50:01;59958.63;;;19.62;68.72
67009;BME280;53922;52.080;4.748;2022-08-05T06:52:26;59968.91;;;19.72;69.10
67009;BME280;53922;52.080;4.748;2022-08-05T06:54:52;59955.50;;;19.64;69.81
67009;BME280;53922;52.080;4.748;2022-08-05T06:57:17;59953.94;;;19.65;68.56
67009;BME280;53922;52.080;4.748;2022-08-05T06:59:43;59952.28;;;19.63;67.80
67009;BME280;53922;52.080;4.748;2022-08-05T07:02:09;59962.06;;;19.73;69.36
67009;BME280;53922;52.080;4.748;2022-08-05T07:04:35;59959.81;;;19.68;66.66
67009;BME280;53922;52.080;4.748;2022-08-05T07:07:00;59957.66;;;19.66;65.53
67009;BME280;53922;52.080;4.748;2022-08-05T07:09:25;59967.81;;;19.71;66.03
67009;BME280;53922;52.080;4.748;2022-08-05T07:11:51;59979.75;;;19.82;66.23
67009;BME280;53922;52.080;4.748;2022-08-05T07:14:16;59989.69;;;19.99;67.04
67009;BME280;53922;52.080;4.748;2022-08-05T07:17:00;60009.13;;;20.15;64.38
67009;BME280;53922;52.080;4.748;2022-08-05T07:19:26;60039.97;;;20.42;64.04
67009;BME280;53922;52.080;4.748;2022-08-05T07:21:53;60038.41;;;20.43;63.00
67009;BME280;53922;52.080;4.748;2022-08-05T07:24:19;60047.56;;;20.49;62.42
67009;BME280;53922;52.080;4.748;2022-08-05T07:26:46;60037.28;;;20.39;61.41
67009;BME280;53922;52.080;4.748;2022-08-05T07:29:12;60050.34;;;20.54;58.69
67009;BME280;53922;52.080;4.748;2022-08-05T07:31:37;60078.00;;;20.81;56.88
67009;BME280;53922;52.080;4.748;2022-08-05T07:34:03;60105.00;;;21.01;57.97
67009;BME280;53922;52.080;4.748;2022-08-05T07:36:29;60122.97;;;21.21;57.57
67009;BME280;53922;52.080;4.748;2022-08-05T07:38:55;60119.75;;;21.20;53.70
67009;BME280;53922;52.080;4.748;2022-08-05T07:41:22;60137.16;;;21.39;54.92
67009;BME280;53922;52.080;4.748;2022-08-05T07:43:48;60137.72;;;21.40;54.31
67009;BME280;53922;52.080;4.748;2022-08-05T07:46:13;60145.72;;;21.43;56.46
67009;BME280;53922;52.080;4.748;2022-08-05T07:48:39;60132.72;;;21.30;57.29
67009;BME280;53922;52.080;4.748;2022-08-05T07:51:04;60134.34;;;21.32;56.81
67009;BME280;53922;52.080;4.748;2022-08-05T07:53:30;60140.38;;;21.40;57.62
67009;BME280;53922;52.080;4.748;2022-08-05T07:55:55;60140.97;;;21.43;58.60
67009;BME280;53922;52.080;4.748;2022-08-05T07:58:21;60140.91;;;21.40;58.56
67009;BME280;53922;52.080;4.748;2022-08-05T08:00:46;60119.22;;;21.20;57.89
67009;BME280;53922;52.080;4.748;2022-08-05T08:03:12;60131.56;;;21.27;59.37
67009;BME280;53922;52.080;4.748;2022-08-05T08:05:41;60120.78;;;21.19;59.91
67009;BME280;53922;52.080;4.748;2022-08-05T08:08:08;60115.88;;;21.14;60.31
67009;BME280;53922;52.080;4.748;2022-08-05T08:10:34;60094.31;;;20.99;60.03
67009;BME280;53922;52.080;4.748;2022-08-05T08:12:59;60091.56;;;20.94;61.75
67009;BME280;53922;52.080;4.748;2022-08-05T08:15:25;60085.53;;;20.85;61.69
67009;BME280;53922;52.080;4.748;2022-08-05T08:17:50;60090.47;;;20.92;61.16
67009;BME280;53922;52.080;4.748;2022-08-05T08:20:15;60100.78;;;21.02;61.43
67009;BME280;53922;52.080;4.748;2022-08-05T08:22:41;60089.94;;;20.92;60.49
67009;BME280;53922;52.080;4.748;2022-08-05T08:25:07;60084.94;;;20.82;61.15
67009;BME280;53922;52.080;4.748;2022-08-05T08:27:32;60064.41;;;20.68;61.25
67009;BME280;53922;52.080;4.748;2022-08-05T08:29:58;60072.09;;;20.78;63.09
67009;BME280;53922;52.080;4.748;2022-08-05T08:32:23;60087.22;;;20.89;61.51
67009;BME280;53922;52.080;4.748;2022-08-05T08:34:49;60114.28;;;21.13;60.56
67009;BME280;53922;52.080;4.748;2022-08-05T08:37:15;60122.47;;;21.23;59.66
67009;BME280;53922;52.080;4.748;2022-08-05T08:39:41;60100.81;;;21.05;58.47
67009;BME280;53922;52.080;4.748;2022-08-05T08:42:08;60106.72;;;21.08;59.67
67009;BME280;53922;52.080;4.748;2022-08-05T08:44:35;60082.88;;;20.85;58.38
67009;BME280;53922;52.080;4.748;2022-08-05T08:47:05;60071.44;;;20.72;58.06
67009;BME280;53922;52.080;4.748;2022-08-05T08:49:33;60058.53;;;20.65;57.71
67009;BME280;53922;52.080;4.748;2022-08-05T08:52:16;60046.03;;;20.53;57.65
67009;BME280;53922;52.080;4.748;2022-08-05T08:54:42;60038.84;;;20.38;57.51
67009;BME280;53922;52.080;4.748;2022-08-05T08:57:08;60010.16;;;20.14;58.29
67009;BME280;53922;52.080;4.748;2022-08-05T09:02:04;59996.69;;;20.03;56.30
67009;BME280;53922;52.080;4.748;2022-08-05T09:04:32;59993.38;;;19.98;55.50
67009;BME280;53922;52.080;4.748;2022-08-05T09:06:57;59987.94;;;19.92;55.84
67009;BME280;53922;52.080;4.748;2022-08-05T09:09:22;59971.81;;;19.82;56.51
67009;BME280;53922;52.080;4.748;2022-08-05T09:11:48;59977.66;;;19.83;55.44
67009;BME280;53922;52.080;4.748;2022-08-05T09:14:13;59970.13;;;19.78;57.09
67009;BME280;53922;52.080;4.748;2022-08-05T09:16:39;59973.84;;;19.79;57.48
67009;BME280;53922;52.080;4.748;2022-08-05T09:19:06;59975.09;;;19.85;56.60
67009;BME280;53922;52.080;4.748;2022-08-05T09:21:32;59965.25;;;19.73;55.80
67009;BME280;53922;52.080;4.748;2022-08-05T09:24:03;59958.69;;;19.65;57.08
67009;BME280;53922;52.080;4.748;2022-08-05T09:26:29;59964.09;;;19.70;58.57
67009;BME280;53922;52.080;4.748;2022-08-05T09:28:59;59960.84;;;19.67;58.32
67009;BME280;53922;52.080;4.748;2022-08-05T09:31:25;59964.66;;;19.70;56.77
67009;BME280;53922;52.080;4.748;2022-08-05T09:33:56;59956.03;;;19.65;56.29
67009;BME280;53922;52.080;4.748;2022-08-05T09:39:10;59970.59;;;19.76;52.92
67009;BME280;53922;52.080;4.748;2022-08-05T09:42:03;59995.06;;;20.02;53.89
67009;BME280;53922;52.080;4.748;2022-08-05T09:44:40;60009.75;;;20.18;52.90
67009;BME280;53922;52.080;4.748;2022-08-05T09:47:16;60027.03;;;20.32;53.29
67009;BME280;53922;52.080;4.748;2022-08-05T09:49:53;60034.13;;;20.41;53.95
67009;BME280;53922;52.080;4.748;2022-08-05T09:52:24;60057.91;;;20.62;53.60
67009;BME280;53922;52.080;4.748;2022-08-05T09:55:10;60054.66;;;20.58;51.94
67009;BME280;53922;52.080;4.748;2022-08-05T09:57:44;60063.28;;;20.64;52.49
67009;BME280;53922;52.080;4.748;2022-08-05T10:00:17;60049.19;;;20.51;49.86
67009;BME280;53922;52.080;4.748;2022-08-05T10:02:45;60033.41;;;20.33;50.68
67009;BME280;53922;52.080;4.748;2022-08-05T10:05:11;60019.94;;;20.23;52.32
67009;BME280;53922;52.080;4.748;2022-08-05T10:07:51;60026.97;;;20.30;55.40
67009;BME280;53922;52.080;4.748;2022-08-05T10:10:20;60015.03;;;20.18;52.75
67009;BME280;53922;52.080;4.748;2022-08-05T10:12:52;59995.13;;;20.04;53.94
67009;BME280;53922;52.080;4.748;2022-08-05T10:15:40;59988.06;;;19.98;53.57
67009;BME280;53922;52.080;4.748;2022-08-05T10:18:13;59991.16;;;19.93;54.03
67009;BME280;53922;52.080;4.748;2022-08-05T10:23:10;59982.13;;;19.92;56.45
67009;BME280;53922;52.080;4.748;2022-08-05T10:25:36;59983.69;;;19.91;57.69
67009;BME280;53922;52.080;4.748;2022-08-05T10:28:02;59973.91;;;19.82;57.35
67009;BME280;53922;52.080;4.748;2022-08-05T10:30:28;59966.25;;;19.72;57.29
67009;BME280;53922;52.080;4.748;2022-08-05T10:32:56;59971.16;;;19.76;57.39
67009;BME280;53922;52.080;4.748;2022-08-05T10:35:23;59971.75;;;19.79;56.30
67009;BME280;53922;52.080;4.748;2022-08-05T10:37:48;59974.00;;;19.84;57.09
67009;BME280;53922;52.080;4.748;2022-08-05T10:40:29;59982.59;;;19.90;57.33
67009;BME280;53922;52.080;4.748;2022-08-05T10:43:00;59979.94;;;19.90;55.89
67009;BME280;53922;52.080;4.748;2022-08-05T10:45:27;59986.44;;;19.96;56.43
67009;BME280;53922;52.080;4.748;2022-08-05T10:47:53;59997.81;;;20.07;55.85
67009;BME280;53922;52.080;4.748;2022-08-05T10:50:19;60031.91;;;20.37;54.54
67009;BME280;53922;52.080;4.748;2022-08-05T10:52:47;60041.72;;;20.49;55.44
67009;BME280;53922;52.080;4.748;2022-08-05T10:55:18;60048.56;;;20.48;54.73
67009;BME280;53922;52.080;4.748;2022-08-05T10:57:43;60016.78;;;20.25;51.45
67009;BME280;53922;52.080;4.748;2022-08-05T11:00:18;59989.69;;;19.99;51.46
67009;BME280;53922;52.080;4.748;2022-08-05T11:05:23;59992.34;;;19.99;53.96
67009;BME280;53922;52.080;4.748;2022-08-05T11:07:55;59981.56;;;19.91;52.89
67009;BME280;53922;52.080;4.748;2022-08-05T11:10:25;59994.03;;;20.03;54.83
67009;BME280;53922;52.080;4.748;2022-08-05T11:12:51;59990.78;;;20.00;54.41
67009;BME280;53922;52.080;4.748;2022-08-05T11:15:30;60000.41;;;20.04;55.41
67009;BME280;53922;52.080;4.748;2022-08-05T11:20:45;60003.78;;;20.13;54.30
67009;BME280;53922;52.080;4.748;2022-08-05T11:23:50;60002.09;;;20.08;52.65
67009;BME280;53922;52.080;4.748;2022-08-05T11:28:51;60032.38;;;20.35;53.45
67009;BME280;53922;52.080;4.748;2022-08-05T11:31:18;60049.78;;;20.54;54.65
67009;BME280;53922;52.080;4.748;2022-08-05T11:36:44;60127.88;;;21.28;51.58
67009;BME280;53922;52.080;4.748;2022-08-05T11:39:45;60178.97;;;21.79;50.33
67009;BME280;53922;52.080;4.748;2022-08-05T11:42:01;60208.75;;;22.05;47.92
67009;BME280;53922;52.080;4.748;2022-08-05T11:44:35;60203.34;;;22.00;45.70
67009;BME280;53922;52.080;4.748;2022-08-05T11:47:01;60171.91;;;21.72;44.27
67009;BME280;53922;52.080;4.748;2022-08-05T11:49:26;60174.56;;;21.72;45.69
67009;BME280;53922;52.080;4.748;2022-08-05T11:51:52;60157.75;;;21.56;47.48
67009;BME280;53922;52.080;4.748;2022-08-05T11:54:31;60149.09;;;21.51;49.27
67009;BME280;53922;52.080;4.748;2022-08-05T11:57:02;60201.16;;;21.98;49.77
67009;BME280;53922;52.080;4.748;2022-08-05T11:59:29;60239.69;;;22.34;50.99
67009;BME280;53922;52.080;4.748;2022-08-05T12:02:05;60249.00;;;22.46;48.07
67009;BME280;53922;52.080;4.748;2022-08-05T12:04:44;60201.69;;;21.98;47.71
67009;BME280;53922;52.080;4.748;2022-08-05T12:07:12;60178.97;;;21.79;49.17
67009;BME280;53922;52.080;4.748;2022-08-05T12:09:40;60198.94;;;21.93;50.75
67009;BME280;53922;52.080;4.748;2022-08-05T12:12:06;60228.78;;;22.21;48.24
67009;BME280;53922;52.080;4.748;2022-08-05T12:14:40;60247.31;;;22.42;49.37
67009;BME280;53922;52.080;4.748;2022-08-05T12:17:11;60231.06;;;22.29;48.71
67009;BME280;53922;52.080;4.748;2022-08-05T12:19:42;60227.22;;;22.23;47.23
67009;BME280;53922;52.080;4.748;2022-08-05T12:22:08;60274.34;;;22.62;47.90
67009;BME280;53922;52.080;4.748;2022-08-05T12:24:39;60295.13;;;22.87;46.82
67009;BME280;53922;52.080;4.748;2022-08-05T12:27:04;60282.63;;;22.75;45.79
67009;BME280;53922;52.080;4.748;2022-08-05T12:29:30;60278.28;;;22.71;44.21
67009;BME280;53922;52.080;4.748;2022-08-05T12:31:57;60288.13;;;22.83;42.70
67009;BME280;53922;52.080;4.748;2022-08-05T12:34:25;60304.88;;;22.96;43.19
67009;BME280;53922;52.080;4.748;2022-08-05T12:36:53;60273.94;;;22.67;42.82
67009;BME280;53922;52.080;4.748;2022-08-05T12:41:45;60288.00;;;22.78;43.79
67009;BME280;53922;52.080;4.748;2022-08-05T12:44:11;60328.84;;;23.19;42.53
67009;BME280;53922;52.080;4.748;2022-08-05T12:46:39;60364.69;;;23.53;42.53
67009;BME280;53922;52.080;4.748;2022-08-05T12:49:10;60378.34;;;23.69;39.98
67009;BME280;53922;52.080;4.748;2022-08-05T12:54:10;60376.00;;;23.59;41.24
67009;BME280;53922;52.080;4.748;2022-08-05T12:56:40;60339.13;;;23.29;41.33
67009;BME280;53922;52.080;4.748;2022-08-05T12:59:10;60376.59;;;23.62;42.03
67009;BME280;53922;52.080;4.748;2022-08-05T13:01:36;60376.66;;;23.64;41.66
67009;BME280;53922;52.080;4.748;2022-08-05T13:04:03;60307.63;;;22.99;41.81
67009;BME280;53922;52.080;4.748;2022-08-05T13:06:29;60270.19;;;22.66;42.61
67009;BME280;53922;52.080;4.748;2022-08-05T13:08:54;60241.88;;;22.36;43.62
67009;BME280;53922;52.080;4.748;2022-08-05T13:11:22;60247.28;;;22.39;43.87
67009;BME280;53922;52.080;4.748;2022-08-05T13:13:48;60283.16;;;22.76;44.16
67009;BME280;53922;52.080;4.748;2022-08-05T13:16:14;60311.41;;;23.02;43.33
67009;BME280;53922;52.080;4.748;2022-08-05T13:18:52;60327.69;;;23.15;42.61
67009;BME280;53922;52.080;4.748;2022-08-05T13:21:18;60306.53;;;22.98;41.94
67009;BME280;53922;52.080;4.748;2022-08-05T13:23:43;60331.59;;;23.24;42.61
67009;BME280;53922;52.080;4.748;2022-08-05T13:26:09;60341.84;;;23.31;42.38
67009;BME280;53922;52.080;4.748;2022-08-05T13:28:34;60336.94;;;23.24;42.90
67009;BME280;53922;52.080;4.748;2022-08-05T13:30:59;60323.91;;;23.14;44.13
67009;BME280;53922;52.080;4.748;2022-08-05T13:33:25;60320.59;;;23.09;43.50
67009;BME280;53922;52.080;4.748;2022-08-05T13:35:50;60320.16;;;23.13;44.29
67009;BME280;53922;52.080;4.748;2022-08-05T13:38:15;60308.09;;;22.97;42.96
67009;BME280;53922;52.080;4.748;2022-08-05T13:40:41;60279.91;;;22.73;41.65
67009;BME280;53922;52.080;4.748;2022-08-05T13:43:06;60238.03;;;22.30;44.28
67009;BME280;53922;52.080;4.748;2022-08-05T13:45:32;60222.81;;;22.16;46.83
67009;BME280;53922;52.080;4.748;2022-08-05T13:47:57;60206.59;;;22.03;44.63
67009;BME280;53922;52.080;4.748;2022-08-05T13:50:22;60161.00;;;21.60;45.53
67009;BME280;53922;52.080;4.748;2022-08-05T13:52:47;60162.56;;;21.59;47.05
67009;BME280;53922;52.080;4.748;2022-08-05T13:55:13;60177.88;;;21.78;49.52
67009;BME280;53922;52.080;4.748;2022-08-05T13:57:38;60204.41;;;22.01;49.26